createdAt,value
2023-02-14T00:08:58.110Z,22
2023-02-14T00:19:02.726Z,17
2023-02-14T00:29:09.220Z,20
2023-02-14T00:39:13.504Z,17
2023-02-14T00:49:18.102Z,19
2023-02-14T00:59:22.775Z,23
2023-02-14T01:09:27.821Z,23
2023-02-14T01:19:33.520Z,22
2023-02-14T01:29:40.276Z,21
2023-02-14T01:39:46.009Z,20
2023-02-14T01:49:52.057Z,20
2023-02-14T01:59:56.969Z,19
2023-02-14T02:10:03.277Z,21
2023-02-14T02:20:09.924Z,18
2023-02-14T02:30:16.679Z,15
2023-02-14T02:40:22.889Z,17
2023-02-14T02:50:29.109Z,16
2023-02-14T03:00:36.443Z,20
2023-02-14T03:10:40.909Z,21
2023-02-14T03:20:46.237Z,17
2023-02-14T03:30:51.594Z,19
2023-02-14T03:40:57.018Z,21
2023-02-14T03:51:02.902Z,19
2023-02-14T04:01:06.902Z,19
2023-02-14T04:11:12.649Z,18
2023-02-14T04:21:16.783Z,18
2023-02-14T04:31:20.536Z,18
2023-02-14T04:41:26.676Z,19
2023-02-14T04:51:33.018Z,19
2023-02-14T05:01:39.965Z,17
2023-02-14T05:11:44.523Z,17
2023-02-14T05:21:50.698Z,17
2023-02-14T05:31:57.068Z,18
2023-02-14T05:42:04.172Z,15
2023-02-14T05:52:09.705Z,19
2023-02-14T06:02:16.121Z,15
2023-02-14T06:12:21.031Z,22
2023-02-14T06:22:26.062Z,23
2023-02-14T06:32:33.773Z,27
2023-02-14T06:42:39.969Z,22
2023-02-14T06:52:45.459Z,16
2023-02-14T07:02:56.188Z,18
2023-02-14T07:12:58.305Z,14
2023-02-14T07:23:04.443Z,11
2023-02-14T07:33:08.604Z,10
2023-02-14T07:43:13.452Z,21
2023-02-14T07:53:20.292Z,20
2023-02-14T08:03:26.762Z,16
2023-02-14T08:13:34.141Z,22
2023-02-14T08:23:40.930Z,19
2023-02-14T08:33:46.321Z,13
2023-02-14T08:43:53.267Z,15
2023-02-14T08:53:58.546Z,15
2023-02-14T09:04:03.982Z,11
2023-02-14T09:14:09.183Z,12
2023-02-14T09:24:16.605Z,9
2023-02-14T09:34:21.618Z,8
2023-02-14T09:44:25.682Z,11
2023-02-14T09:54:32.092Z,9
2023-02-14T10:04:40.284Z,9
2023-02-14T10:14:44.656Z,10
2023-02-14T10:24:51.791Z,8
2023-02-14T10:34:59.629Z,8
2023-02-14T10:45:05.561Z,8
2023-02-14T10:55:13.860Z,9
2023-02-14T11:05:17.614Z,9
2023-02-14T11:15:24.408Z,7
2023-02-14T11:25:30.374Z,7
2023-02-14T11:35:37.197Z,11
2023-02-14T11:45:43.710Z,8
2023-02-14T11:55:48.474Z,13
2023-02-14T12:05:53.609Z,5
2023-02-14T12:16:00.370Z,6
2023-02-14T12:26:04.588Z,7
2023-02-14T12:36:11.452Z,8
2023-02-14T13:06:30.592Z,10
2023-02-14T13:16:39.535Z,8
2023-02-14T13:26:43.946Z,9
2023-02-14T13:36:50.184Z,8
2023-02-14T13:46:56.078Z,7
2023-02-14T13:57:00.896Z,11
2023-02-14T14:07:06.567Z,12
2023-02-14T14:17:12.760Z,11
2023-02-14T14:27:18.017Z,9
2023-02-14T14:37:23.737Z,12
2023-02-14T14:47:29.928Z,10
2023-02-14T14:57:35.102Z,11
2023-02-14T15:07:41.284Z,9
2023-02-14T15:17:44.658Z,10
2023-02-14T15:27:52.497Z,10
2023-02-14T15:37:57.418Z,13
2023-02-14T15:48:03.792Z,13
2023-02-14T15:58:09.109Z,13
2023-02-14T16:08:15.759Z,14
2023-02-14T16:18:22.608Z,25
2023-02-14T16:28:29.302Z,34
2023-02-14T16:38:35.145Z,36
2023-02-14T16:48:41.888Z,36
2023-02-14T16:58:47.798Z,30
2023-02-14T17:08:55.767Z,29
2023-02-14T17:19:01.127Z,33
2023-02-14T17:29:04.317Z,36
2023-02-14T17:39:09.850Z,35
2023-02-14T17:49:16.628Z,36
2023-02-14T17:59:20.538Z,38
2023-02-14T18:09:26.990Z,37
2023-02-14T18:19:33.636Z,24
2023-02-14T18:29:39.002Z,35
2023-02-14T18:39:43.475Z,17
2023-02-14T18:49:50.395Z,19
2023-02-14T18:59:56.831Z,19
2023-02-14T19:10:02.190Z,19
2023-02-14T19:20:06.866Z,21
2023-02-14T19:30:14.312Z,12
2023-02-14T19:40:19.984Z,13
2023-02-14T19:50:26.242Z,14
2023-02-14T20:00:30.974Z,20
2023-02-14T20:10:36.791Z,15
2023-02-14T20:20:43.921Z,14
2023-02-14T20:30:50.852Z,16
2023-02-14T20:40:54.329Z,11
2023-02-14T20:51:01.658Z,11
2023-02-14T21:01:08.459Z,10
2023-02-14T21:11:11.249Z,17
2023-02-14T21:21:16.306Z,17
2023-02-14T21:31:23.610Z,13
2023-02-14T21:41:27.673Z,12
2023-02-14T21:51:36.267Z,11
2023-02-14T22:01:40.824Z,12
2023-02-14T22:11:46.183Z,11
2023-02-14T22:21:50.806Z,11
2023-02-14T22:31:56.361Z,9
2023-02-14T22:41:59.897Z,11
2023-02-14T22:52:04.618Z,9
2023-02-14T23:02:09.665Z,10
2023-02-14T23:12:15.363Z,11
2023-02-14T23:22:21.775Z,10
2023-02-14T23:32:29.334Z,11
2023-02-14T23:42:34.395Z,10
2023-02-14T23:52:41.229Z,9
